This is the latest recevied weather packets stored in our database for station/object BMCB-24. If no packets are shown the sender has not sent any weather packets the latest 10 day(s).
| Time | Temp. | Humidity | Pressure | Rain* | Wind** | Luminosity | Snow |
|---|---|---|---|---|---|---|---|
| 1777465257 | 17.78° C | 33% | 1021.4 hPa | 0 mm | - | 744 W/m² | - |
| 1777464659 | 17.78° C | 34% | 1021.5 hPa | 0 mm | - | 750 W/m² | - |
| 1777463456 | 17.78° C | 35% | 1021.7 hPa | 0 mm | - | 752 W/m² | - |
| 1777449658 | 11.67° C | 43% | 1022.3 hPa | 0 mm | - | 458 W/m² | - |
| 1777446655 | 10° C | 45% | 1022.3 hPa | 0 mm | - | 328 W/m² | - |
| 1777443659 | 8.89° C | 48% | 1022.4 hPa | 0 mm | - | 194 W/m² | - |
| 1777442455 | 8.33° C | 48% | 1022.5 hPa | 0 mm | - | 142 W/m² | - |
| 1777441855 | 7.78° C | 48% | 1022.5 hPa | 0 mm | - | 120 W/m² | - |
| 1777437057 | 6.67° C | 53% | 1022.1 hPa | 0 mm | - | 6 W/m² | - |
| 1777429256 | 8.33° C | 53% | 1021.3 hPa | 0 mm | - | 0 W/m² | - |
| 1777423855 | 9.44° C | 52% | 1021.1 hPa | 0 mm | - | 0 W/m² | - |
| 1777423253 | 9.44° C | 52% | 1021.1 hPa | 0 mm | - | 0 W/m² | - |
| 1777422052 | 10° C | 52% | 1021 hPa | 0 mm | - | 0 W/m² | - |
| 1777417859 | 11.67° C | 48% | 1020.7 hPa | 0 mm | - | 0 W/m² | - |
| 1777415457 | 12.22° C | 47% | 1020.4 hPa | 0 mm | - | 0 W/m² | - |
| 1777413065 | 13.33° C | 45% | 1020.1 hPa | 0 mm | - | 0 W/m² | - |
| 1777410068 | 13.89° C | 45% | 1019.6 hPa | 0 mm | - | 0 W/m² | - |
| 1777408262 | 14.44° C | 45% | 1019.5 hPa | 0 mm | - | 0 W/m² | - |
| 1777407068 | 14.44° C | 44% | 1019.3 hPa | 0 mm | - | 0 W/m² | - |
| 1777406465 | 14.44° C | 44% | 1019.2 hPa | 0 mm | - | 0 W/m² | - |
| 1777404661 | 15° C | 43% | 1018.6 hPa | 0 mm | - | 0 W/m² | - |
| 1777390258 | 20° C | 32% | 1016.4 hPa | 0 mm | - | 430 W/m² | - |
| 1777389657 | 20° C | 33% | 1016.4 hPa | 0 mm | - | 388 W/m² | - |
| 1777386655 | 19.44° C | 33% | 1016.5 hPa | 0 mm | - | 356 W/m² | - |
| 1777383055 | 19.44° C | 34% | 1016.8 hPa | 0 mm | - | 350 W/m² | - |
* Rain latest hour (hover to see other rain measurements)
** Current wind speed in m/s (hover to see current wind gust speed)